sensor_id;sensor_type;location;lat;lon;timestamp;P1;durP1;ratioP1;P2;durP2;ratioP2
17596;SDS011;8917;50.942;6.946;2023-06-10T00:00:15;7.65;;;6.82;;
17596;SDS011;8917;50.942;6.946;2023-06-10T00:02:42;10.55;;;8.00;;
17596;SDS011;8917;50.942;6.946;2023-06-10T00:05:09;7.80;;;7.10;;
17596;SDS011;8917;50.942;6.946;2023-06-10T00:07:36;7.75;;;6.90;;
17596;SDS011;8917;50.942;6.946;2023-06-10T00:10:04;7.90;;;7.20;;
17596;SDS011;8917;50.942;6.946;2023-06-10T00:12:31;7.85;;;7.25;;
17596;SDS011;8917;50.942;6.946;2023-06-10T00:15:03;7.90;;;7.15;;
17596;SDS011;8917;50.942;6.946;2023-06-10T00:17:32;7.95;;;7.15;;
17596;SDS011;8917;50.942;6.946;2023-06-10T00:19:59;10.70;;;7.05;;
17596;SDS011;8917;50.942;6.946;2023-06-10T00:22:30;9.07;;;7.82;;
17596;SDS011;8917;50.942;6.946;2023-06-10T00:24:57;10.27;;;6.95;;
17596;SDS011;8917;50.942;6.946;2023-06-10T00:27:24;8.23;;;7.45;;
17596;SDS011;8917;50.942;6.946;2023-06-10T00:29:56;7.50;;;6.70;;
17596;SDS011;8917;50.942;6.946;2023-06-10T00:32:23;7.63;;;6.88;;
17596;SDS011;8917;50.942;6.946;2023-06-10T00:34:52;8.43;;;6.88;;
17596;SDS011;8917;50.942;6.946;2023-06-10T00:37:19;8.27;;;7.47;;
17596;SDS011;8917;50.942;6.946;2023-06-10T00:39:46;8.13;;;7.32;;
17596;SDS011;8917;50.942;6.946;2023-06-10T00:42:13;9.00;;;7.43;;
17596;SDS011;8917;50.942;6.946;2023-06-10T00:44:41;8.73;;;7.53;;
17596;SDS011;8917;50.942;6.946;2023-06-10T00:47:08;8.13;;;7.43;;
17596;SDS011;8917;50.942;6.946;2023-06-10T00:49:35;9.00;;;7.53;;
17596;SDS011;8917;50.942;6.946;2023-06-10T00:52:04;7.72;;;7.03;;
17596;SDS011;8917;50.942;6.946;2023-06-10T00:54:32;8.68;;;7.60;;
17596;SDS011;8917;50.942;6.946;2023-06-10T00:57:00;8.45;;;7.32;;
17596;SDS011;8917;50.942;6.946;2023-06-10T00:59:27;8.32;;;7.53;;
17596;SDS011;8917;50.942;6.946;2023-06-10T01:01:55;8.52;;;7.72;;
17596;SDS011;8917;50.942;6.946;2023-06-10T01:04:23;8.02;;;7.32;;
17596;SDS011;8917;50.942;6.946;2023-06-10T01:06:52;8.93;;;7.53;;
17596;SDS011;8917;50.942;6.946;2023-06-10T01:09:24;8.63;;;7.40;;
17596;SDS011;8917;50.942;6.946;2023-06-10T01:11:57;10.02;;;8.23;;
17596;SDS011;8917;50.942;6.946;2023-06-10T01:14:25;8.50;;;7.40;;
17596;SDS011;8917;50.942;6.946;2023-06-10T01:16:53;8.32;;;7.28;;
17596;SDS011;8917;50.942;6.946;2023-06-10T01:19:20;11.43;;;8.32;;
17596;SDS011;8917;50.942;6.946;2023-06-10T01:21:50;8.48;;;7.65;;
17596;SDS011;8917;50.942;6.946;2023-06-10T01:24:20;8.95;;;8.05;;
17596;SDS011;8917;50.942;6.946;2023-06-10T01:26:48;8.68;;;7.80;;
17596;SDS011;8917;50.942;6.946;2023-06-10T01:29:17;10.65;;;8.60;;
17596;SDS011;8917;50.942;6.946;2023-06-10T01:31:46;9.68;;;8.77;;
17596;SDS011;8917;50.942;6.946;2023-06-10T01:34:16;8.95;;;8.07;;
17596;SDS011;8917;50.942;6.946;2023-06-10T01:36:44;9.07;;;8.18;;
17596;SDS011;8917;50.942;6.946;2023-06-10T01:39:14;8.52;;;7.80;;
17596;SDS011;8917;50.942;6.946;2023-06-10T01:41:41;9.77;;;8.77;;
17596;SDS011;8917;50.942;6.946;2023-06-10T01:44:08;9.43;;;8.50;;
17596;SDS011;8917;50.942;6.946;2023-06-10T01:46:36;10.65;;;9.10;;
17596;SDS011;8917;50.942;6.946;2023-06-10T01:49:03;9.57;;;8.68;;
17596;SDS011;8917;50.942;6.946;2023-06-10T01:51:30;8.52;;;7.65;;
17596;SDS011;8917;50.942;6.946;2023-06-10T01:53:57;9.13;;;8.25;;
17596;SDS011;8917;50.942;6.946;2023-06-10T01:56:26;9.10;;;8.20;;
17596;SDS011;8917;50.942;6.946;2023-06-10T01:58:53;9.27;;;8.07;;
17596;SDS011;8917;50.942;6.946;2023-06-10T02:01:24;8.98;;;8.18;;
17596;SDS011;8917;50.942;6.946;2023-06-10T02:03:51;9.02;;;8.23;;
17596;SDS011;8917;50.942;6.946;2023-06-10T02:06:18;8.25;;;7.55;;
17596;SDS011;8917;50.942;6.946;2023-06-10T02:08:45;10.23;;;9.32;;
17596;SDS011;8917;50.942;6.946;2023-06-10T02:11:12;9.32;;;8.38;;
17596;SDS011;8917;50.942;6.946;2023-06-10T02:13:41;9.48;;;8.57;;
17596;SDS011;8917;50.942;6.946;2023-06-10T02:16:08;9.32;;;8.43;;
17596;SDS011;8917;50.942;6.946;2023-06-10T02:18:37;9.48;;;8.48;;
17596;SDS011;8917;50.942;6.946;2023-06-10T02:21:05;8.65;;;7.75;;
17596;SDS011;8917;50.942;6.946;2023-06-10T02:23:33;9.05;;;8.23;;
17596;SDS011;8917;50.942;6.946;2023-06-10T02:26:00;10.48;;;9.23;;
17596;SDS011;8917;50.942;6.946;2023-06-10T02:28:27;9.95;;;8.88;;
17596;SDS011;8917;50.942;6.946;2023-06-10T02:30:55;9.25;;;8.20;;
17596;SDS011;8917;50.942;6.946;2023-06-10T02:33:24;9.27;;;8.48;;
17596;SDS011;8917;50.942;6.946;2023-06-10T02:35:52;9.07;;;8.25;;
17596;SDS011;8917;50.942;6.946;2023-06-10T02:38:19;9.13;;;8.23;;
17596;SDS011;8917;50.942;6.946;2023-06-10T02:40:46;9.30;;;8.40;;
17596;SDS011;8917;50.942;6.946;2023-06-10T02:43:13;9.13;;;7.95;;
17596;SDS011;8917;50.942;6.946;2023-06-10T02:45:40;8.48;;;7.68;;
17596;SDS011;8917;50.942;6.946;2023-06-10T02:48:09;8.90;;;8.10;;
17596;SDS011;8917;50.942;6.946;2023-06-10T02:50:36;9.88;;;8.98;;
17596;SDS011;8917;50.942;6.946;2023-06-10T02:53:05;10.15;;;8.23;;
17596;SDS011;8917;50.942;6.946;2023-06-10T02:55:33;9.43;;;8.27;;
17596;SDS011;8917;50.942;6.946;2023-06-10T02:58:00;9.82;;;8.43;;
17596;SDS011;8917;50.942;6.946;2023-06-10T03:00:27;9.55;;;8.52;;
17596;SDS011;8917;50.942;6.946;2023-06-10T03:02:55;8.27;;;7.50;;
17596;SDS011;8917;50.942;6.946;2023-06-10T03:05:24;8.88;;;8.07;;
17596;SDS011;8917;50.942;6.946;2023-06-10T03:07:51;8.88;;;8.07;;
17596;SDS011;8917;50.942;6.946;2023-06-10T03:10:18;8.70;;;7.90;;
17596;SDS011;8917;50.942;6.946;2023-06-10T03:12:46;9.02;;;8.00;;
17596;SDS011;8917;50.942;6.946;2023-06-10T03:15:13;9.75;;;8.50;;
17596;SDS011;8917;50.942;6.946;2023-06-10T03:17:41;8.70;;;7.70;;
17596;SDS011;8917;50.942;6.946;2023-06-10T03:20:08;9.27;;;8.48;;
17596;SDS011;8917;50.942;6.946;2023-06-10T03:22:37;9.18;;;8.27;;
17596;SDS011;8917;50.942;6.946;2023-06-10T03:25:05;9.13;;;8.23;;
17596;SDS011;8917;50.942;6.946;2023-06-10T03:27:33;9.32;;;8.35;;
17596;SDS011;8917;50.942;6.946;2023-06-10T03:30:00;8.88;;;7.97;;
17596;SDS011;8917;50.942;6.946;2023-06-10T03:32:28;8.93;;;8.02;;
17596;SDS011;8917;50.942;6.946;2023-06-10T03:34:55;8.45;;;7.65;;
17596;SDS011;8917;50.942;6.946;2023-06-10T03:37:23;8.65;;;7.95;;
17596;SDS011;8917;50.942;6.946;2023-06-10T03:39:51;9.32;;;8.32;;
17596;SDS011;8917;50.942;6.946;2023-06-10T03:42:18;8.95;;;8.13;;
17596;SDS011;8917;50.942;6.946;2023-06-10T03:44:46;8.68;;;7.88;;
17596;SDS011;8917;50.942;6.946;2023-06-10T03:47:13;10.15;;;8.10;;
17596;SDS011;8917;50.942;6.946;2023-06-10T03:49:41;9.43;;;8.32;;
17596;SDS011;8917;50.942;6.946;2023-06-10T03:52:08;9.23;;;8.25;;
17596;SDS011;8917;50.942;6.946;2023-06-10T03:54:35;9.35;;;8.35;;
17596;SDS011;8917;50.942;6.946;2023-06-10T03:57:04;10.10;;;9.07;;
17596;SDS011;8917;50.942;6.946;2023-06-10T03:59:31;9.45;;;8.55;;
17596;SDS011;8917;50.942;6.946;2023-06-10T04:01:59;11.15;;;8.05;;
17596;SDS011;8917;50.942;6.946;2023-06-10T04:04:26;9.52;;;8.68;;
17596;SDS011;8917;50.942;6.946;2023-06-10T04:06:54;9.80;;;8.90;;
17596;SDS011;8917;50.942;6.946;2023-06-10T04:09:21;9.20;;;8.30;;
17596;SDS011;8917;50.942;6.946;2023-06-10T04:11:48;9.70;;;8.75;;
17596;SDS011;8917;50.942;6.946;2023-06-10T04:14:16;9.38;;;8.43;;
17596;SDS011;8917;50.942;6.946;2023-06-10T04:16:44;9.63;;;8.23;;
17596;SDS011;8917;50.942;6.946;2023-06-10T04:19:11;9.50;;;8.35;;
17596;SDS011;8917;50.942;6.946;2023-06-10T04:21:38;9.95;;;9.00;;
17596;SDS011;8917;50.942;6.946;2023-06-10T04:24:05;9.32;;;8.45;;
17596;SDS011;8917;50.942;6.946;2023-06-10T04:26:33;10.13;;;8.77;;
17596;SDS011;8917;50.942;6.946;2023-06-10T04:29:00;9.10;;;8.23;;
17596;SDS011;8917;50.942;6.946;2023-06-10T04:31:29;8.95;;;8.05;;
17596;SDS011;8917;50.942;6.946;2023-06-10T04:33:57;9.73;;;8.73;;
17596;SDS011;8917;50.942;6.946;2023-06-10T04:36:25;9.13;;;8.13;;
17596;SDS011;8917;50.942;6.946;2023-06-10T04:38:55;8.98;;;8.10;;
17596;SDS011;8917;50.942;6.946;2023-06-10T04:41:22;9.10;;;8.20;;
17596;SDS011;8917;50.942;6.946;2023-06-10T04:43:50;10.13;;;7.93;;
17596;SDS011;8917;50.942;6.946;2023-06-10T04:46:18;9.35;;;8.45;;
17596;SDS011;8917;50.942;6.946;2023-06-10T04:48:47;8.90;;;8.13;;
17596;SDS011;8917;50.942;6.946;2023-06-10T04:51:14;8.68;;;7.80;;
17596;SDS011;8917;50.942;6.946;2023-06-10T04:53:41;9.13;;;8.20;;
17596;SDS011;8917;50.942;6.946;2023-06-10T04:56:09;11.00;;;8.75;;
17596;SDS011;8917;50.942;6.946;2023-06-10T04:58:36;8.38;;;7.60;;
17596;SDS011;8917;50.942;6.946;2023-06-10T05:01:03;9.63;;;7.90;;
17596;SDS011;8917;50.942;6.946;2023-06-10T05:03:30;9.32;;;7.65;;
17596;SDS011;8917;50.942;6.946;2023-06-10T05:05:59;8.73;;;7.82;;
17596;SDS011;8917;50.942;6.946;2023-06-10T05:08:26;8.48;;;7.68;;
17596;SDS011;8917;50.942;6.946;2023-06-10T05:10:53;9.68;;;7.95;;
17596;SDS011;8917;50.942;6.946;2023-06-10T05:13:20;8.93;;;8.07;;
17596;SDS011;8917;50.942;6.946;2023-06-10T05:15:47;9.27;;;8.38;;
17596;SDS011;8917;50.942;6.946;2023-06-10T05:18:15;8.90;;;8.02;;
17596;SDS011;8917;50.942;6.946;2023-06-10T05:20:42;9.13;;;8.00;;
17596;SDS011;8917;50.942;6.946;2023-06-10T05:23:10;9.18;;;8.27;;
17596;SDS011;8917;50.942;6.946;2023-06-10T05:25:38;8.95;;;8.05;;
17596;SDS011;8917;50.942;6.946;2023-06-10T05:28:05;9.20;;;8.25;;
17596;SDS011;8917;50.942;6.946;2023-06-10T05:30:34;8.70;;;7.80;;
17596;SDS011;8917;50.942;6.946;2023-06-10T05:33:02;10.30;;;8.60;;
17596;SDS011;8917;50.942;6.946;2023-06-10T05:35:30;8.10;;;7.35;;
17596;SDS011;8917;50.942;6.946;2023-06-10T05:37:57;8.32;;;7.47;;
17596;SDS011;8917;50.942;6.946;2023-06-10T05:40:25;9.70;;;7.00;;
17596;SDS011;8917;50.942;6.946;2023-06-10T05:42:52;7.55;;;6.85;;
17596;SDS011;8917;50.942;6.946;2023-06-10T05:45:20;7.78;;;6.97;;
17596;SDS011;8917;50.942;6.946;2023-06-10T05:47:47;8.80;;;7.40;;
17596;SDS011;8917;50.942;6.946;2023-06-10T05:50:14;7.50;;;6.78;;
17596;SDS011;8917;50.942;6.946;2023-06-10T05:52:41;7.90;;;6.97;;
17596;SDS011;8917;50.942;6.946;2023-06-10T05:55:09;7.68;;;6.65;;
17596;SDS011;8917;50.942;6.946;2023-06-10T05:57:38;7.68;;;6.90;;
17596;SDS011;8917;50.942;6.946;2023-06-10T06:00:05;7.28;;;6.57;;
17596;SDS011;8917;50.942;6.946;2023-06-10T06:02:33;6.93;;;6.32;;
17596;SDS011;8917;50.942;6.946;2023-06-10T06:05:00;7.20;;;6.50;;
17596;SDS011;8917;50.942;6.946;2023-06-10T06:07:27;7.05;;;6.45;;
17596;SDS011;8917;50.942;6.946;2023-06-10T06:09:54;7.50;;;6.70;;
17596;SDS011;8917;50.942;6.946;2023-06-10T06:12:21;9.75;;;7.00;;
17596;SDS011;8917;50.942;6.946;2023-06-10T06:14:50;7.60;;;6.45;;
17596;SDS011;8917;50.942;6.946;2023-06-10T06:17:17;8.23;;;6.78;;
17596;SDS011;8917;50.942;6.946;2023-06-10T06:19:44;8.60;;;6.53;;
17596;SDS011;8917;50.942;6.946;2023-06-10T06:22:12;7.63;;;6.63;;
17596;SDS011;8917;50.942;6.946;2023-06-10T06:24:40;7.10;;;6.50;;
17596;SDS011;8917;50.942;6.946;2023-06-10T06:27:07;8.38;;;6.72;;
17596;SDS011;8917;50.942;6.946;2023-06-10T06:29:35;6.47;;;5.53;;
17596;SDS011;8917;50.942;6.946;2023-06-10T06:32:04;7.35;;;6.22;;
17596;SDS011;8917;50.942;6.946;2023-06-10T06:34:31;6.85;;;6.13;;
17596;SDS011;8917;50.942;6.946;2023-06-10T06:36:58;6.53;;;5.88;;
17596;SDS011;8917;50.942;6.946;2023-06-10T06:39:25;6.82;;;6.07;;
17596;SDS011;8917;50.942;6.946;2023-06-10T06:41:53;9.05;;;6.45;;
17596;SDS011;8917;50.942;6.946;2023-06-10T06:44:20;6.72;;;6.07;;
17596;SDS011;8917;50.942;6.946;2023-06-10T06:46:47;6.90;;;6.00;;
17596;SDS011;8917;50.942;6.946;2023-06-10T06:49:16;6.72;;;6.13;;
17596;SDS011;8917;50.942;6.946;2023-06-10T06:51:43;7.47;;;6.40;;
17596;SDS011;8917;50.942;6.946;2023-06-10T06:54:10;8.38;;;5.93;;
17596;SDS011;8917;50.942;6.946;2023-06-10T06:56:37;7.57;;;6.35;;
17596;SDS011;8917;50.942;6.946;2023-06-10T06:59:04;7.65;;;6.05;;
17596;SDS011;8917;50.942;6.946;2023-06-10T07:01:32;6.97;;;5.95;;
17596;SDS011;8917;50.942;6.946;2023-06-10T07:04:00;6.72;;;5.90;;
17596;SDS011;8917;50.942;6.946;2023-06-10T07:06:28;7.57;;;6.13;;
17596;SDS011;8917;50.942;6.946;2023-06-10T07:08:56;6.55;;;5.95;;
17596;SDS011;8917;50.942;6.946;2023-06-10T07:11:23;7.03;;;5.75;;
17596;SDS011;8917;50.942;6.946;2023-06-10T07:13:51;6.68;;;6.00;;
17596;SDS011;8917;50.942;6.946;2023-06-10T07:16:18;7.90;;;5.90;;
17596;SDS011;8917;50.942;6.946;2023-06-10T07:18:46;9.75;;;6.35;;
17596;SDS011;8917;50.942;6.946;2023-06-10T07:21:13;6.90;;;5.70;;
17596;SDS011;8917;50.942;6.946;2023-06-10T07:23:42;6.38;;;5.85;;
17596;SDS011;8917;50.942;6.946;2023-06-10T07:26:10;7.03;;;6.07;;
17596;SDS011;8917;50.942;6.946;2023-06-10T07:28:38;6.57;;;5.93;;
17596;SDS011;8917;50.942;6.946;2023-06-10T07:31:06;7.60;;;6.80;;
17596;SDS011;8917;50.942;6.946;2023-06-10T07:33:33;7.72;;;6.07;;
17596;SDS011;8917;50.942;6.946;2023-06-10T07:36:02;7.35;;;6.57;;
17596;SDS011;8917;50.942;6.946;2023-06-10T07:38:29;6.88;;;6.18;;
17596;SDS011;8917;50.942;6.946;2023-06-10T07:40:57;6.82;;;6.15;;
17596;SDS011;8917;50.942;6.946;2023-06-10T07:43:24;6.55;;;5.93;;
17596;SDS011;8917;50.942;6.946;2023-06-10T07:45:52;8.23;;;6.30;;
17596;SDS011;8917;50.942;6.946;2023-06-10T07:48:19;10.40;;;7.10;;
17596;SDS011;8917;50.942;6.946;2023-06-10T07:50:46;7.47;;;6.70;;
17596;SDS011;8917;50.942;6.946;2023-06-10T07:53:13;7.20;;;6.50;;
17596;SDS011;8917;50.942;6.946;2023-06-10T07:55:40;6.80;;;6.10;;
17596;SDS011;8917;50.942;6.946;2023-06-10T07:58:09;6.28;;;5.68;;
17596;SDS011;8917;50.942;6.946;2023-06-10T08:00:36;7.05;;;6.28;;
17596;SDS011;8917;50.942;6.946;2023-06-10T08:03:03;8.20;;;6.30;;
17596;SDS011;8917;50.942;6.946;2023-06-10T08:05:30;8.32;;;6.78;;
17596;SDS011;8917;50.942;6.946;2023-06-10T08:07:58;7.47;;;6.78;;
17596;SDS011;8917;50.942;6.946;2023-06-10T08:10:25;7.20;;;6.60;;
17596;SDS011;8917;50.942;6.946;2023-06-10T08:12:52;7.15;;;6.47;;
17596;SDS011;8917;50.942;6.946;2023-06-10T08:15:21;10.02;;;6.63;;
17596;SDS011;8917;50.942;6.946;2023-06-10T08:17:48;7.30;;;6.60;;
17596;SDS011;8917;50.942;6.946;2023-06-10T08:20:16;7.22;;;6.40;;
17596;SDS011;8917;50.942;6.946;2023-06-10T08:22:43;7.95;;;6.95;;
17596;SDS011;8917;50.942;6.946;2023-06-10T08:25:10;7.60;;;6.90;;
17596;SDS011;8917;50.942;6.946;2023-06-10T08:27:38;7.88;;;6.55;;
17596;SDS011;8917;50.942;6.946;2023-06-10T08:30:06;7.72;;;7.03;;
17596;SDS011;8917;50.942;6.946;2023-06-10T08:32:37;7.22;;;6.53;;
17596;SDS011;8917;50.942;6.946;2023-06-10T08:35:04;10.00;;;6.68;;
17596;SDS011;8917;50.942;6.946;2023-06-10T08:37:31;6.97;;;6.28;;
17596;SDS011;8917;50.942;6.946;2023-06-10T08:39:58;9.80;;;6.80;;
17596;SDS011;8917;50.942;6.946;2023-06-10T08:42:27;6.72;;;6.03;;
17596;SDS011;8917;50.942;6.946;2023-06-10T08:44:55;7.75;;;6.95;;
17596;SDS011;8917;50.942;6.946;2023-06-10T08:47:24;7.57;;;6.88;;
17596;SDS011;8917;50.942;6.946;2023-06-10T08:49:54;7.97;;;7.28;;
17596;SDS011;8917;50.942;6.946;2023-06-10T08:52:26;10.65;;;7.63;;
17596;SDS011;8917;50.942;6.946;2023-06-10T08:54:56;9.68;;;7.85;;
17596;SDS011;8917;50.942;6.946;2023-06-10T08:57:23;7.45;;;6.75;;
17596;SDS011;8917;50.942;6.946;2023-06-10T08:59:52;8.23;;;7.28;;
17596;SDS011;8917;50.942;6.946;2023-06-10T09:02:20;9.35;;;7.05;;
17596;SDS011;8917;50.942;6.946;2023-06-10T09:04:47;11.05;;;7.57;;
17596;SDS011;8917;50.942;6.946;2023-06-10T09:07:16;8.65;;;7.30;;
17596;SDS011;8917;50.942;6.946;2023-06-10T09:09:44;8.68;;;7.43;;
17596;SDS011;8917;50.942;6.946;2023-06-10T09:12:12;9.00;;;6.80;;
17596;SDS011;8917;50.942;6.946;2023-06-10T09:14:40;9.20;;;7.18;;
17596;SDS011;8917;50.942;6.946;2023-06-10T09:17:07;7.68;;;6.97;;
17596;SDS011;8917;50.942;6.946;2023-06-10T09:19:35;8.77;;;6.93;;
17596;SDS011;8917;50.942;6.946;2023-06-10T09:22:02;7.88;;;7.15;;
17596;SDS011;8917;50.942;6.946;2023-06-10T09:24:31;7.97;;;6.95;;
17596;SDS011;8917;50.942;6.946;2023-06-10T09:27:02;7.50;;;6.80;;
17596;SDS011;8917;50.942;6.946;2023-06-10T09:29:30;7.95;;;7.15;;
17596;SDS011;8917;50.942;6.946;2023-06-10T09:31:57;9.93;;;6.78;;
17596;SDS011;8917;50.942;6.946;2023-06-10T09:34:25;8.02;;;7.25;;
17596;SDS011;8917;50.942;6.946;2023-06-10T09:36:52;11.05;;;7.10;;
17596;SDS011;8917;50.942;6.946;2023-06-10T09:39:20;8.90;;;7.25;;
17596;SDS011;8917;50.942;6.946;2023-06-10T09:41:49;7.65;;;6.95;;
17596;SDS011;8917;50.942;6.946;2023-06-10T09:44:17;8.15;;;6.47;;
17596;SDS011;8917;50.942;6.946;2023-06-10T09:46:45;7.43;;;6.72;;
17596;SDS011;8917;50.942;6.946;2023-06-10T09:49:12;7.55;;;6.78;;
17596;SDS011;8917;50.942;6.946;2023-06-10T09:51:48;8.60;;;7.55;;
17596;SDS011;8917;50.942;6.946;2023-06-10T09:54:16;9.57;;;6.97;;
17596;SDS011;8917;50.942;6.946;2023-06-10T09:56:46;10.15;;;7.22;;
17596;SDS011;8917;50.942;6.946;2023-06-10T09:59:15;8.38;;;7.50;;
17596;SDS011;8917;50.942;6.946;2023-06-10T10:01:42;8.65;;;7.25;;
17596;SDS011;8917;50.942;6.946;2023-06-10T10:04:09;7.68;;;7.00;;
17596;SDS011;8917;50.942;6.946;2023-06-10T10:06:36;8.00;;;7.20;;
17596;SDS011;8917;50.942;6.946;2023-06-10T10:09:04;7.63;;;6.90;;
17596;SDS011;8917;50.942;6.946;2023-06-10T10:11:31;7.68;;;6.97;;
17596;SDS011;8917;50.942;6.946;2023-06-10T10:13:59;7.97;;;7.18;;
17596;SDS011;8917;50.942;6.946;2023-06-10T10:16:29;8.40;;;7.60;;
17596;SDS011;8917;50.942;6.946;2023-06-10T10:18:59;7.47;;;6.78;;
17596;SDS011;8917;50.942;6.946;2023-06-10T10:21:30;8.02;;;6.93;;
17596;SDS011;8917;50.942;6.946;2023-06-10T10:24:00;7.65;;;7.05;;
17596;SDS011;8917;50.942;6.946;2023-06-10T10:26:28;7.22;;;6.63;;
17596;SDS011;8917;50.942;6.946;2023-06-10T10:28:58;8.00;;;7.28;;
17596;SDS011;8917;50.942;6.946;2023-06-10T10:31:32;8.20;;;7.32;;
17596;SDS011;8917;50.942;6.946;2023-06-10T10:33:59;7.53;;;6.85;;
17596;SDS011;8917;50.942;6.946;2023-06-10T10:36:27;6.70;;;6.00;;
17596;SDS011;8917;50.942;6.946;2023-06-10T10:38:54;8.73;;;7.50;;
17596;SDS011;8917;50.942;6.946;2023-06-10T10:41:23;8.00;;;7.20;;
17596;SDS011;8917;50.942;6.946;2023-06-10T10:43:51;10.13;;;6.82;;
17596;SDS011;8917;50.942;6.946;2023-06-10T10:46:19;7.95;;;6.85;;
17596;SDS011;8917;50.942;6.946;2023-06-10T10:48:51;8.15;;;7.00;;
17596;SDS011;8917;50.942;6.946;2023-06-10T10:51:19;6.63;;;6.03;;
17596;SDS011;8917;50.942;6.946;2023-06-10T10:56:28;7.22;;;6.60;;
17596;SDS011;8917;50.942;6.946;2023-06-10T10:59:01;6.97;;;6.38;;
17596;SDS011;8917;50.942;6.946;2023-06-10T11:01:39;9.05;;;7.18;;
17596;SDS011;8917;50.942;6.946;2023-06-10T11:04:08;7.88;;;7.03;;
17596;SDS011;8917;50.942;6.946;2023-06-10T11:06:35;8.27;;;6.20;;
17596;SDS011;8917;50.942;6.946;2023-06-10T11:09:25;7.10;;;6.10;;
17596;SDS011;8917;50.942;6.946;2023-06-10T11:11:52;7.75;;;6.53;;
17596;SDS011;8917;50.942;6.946;2023-06-10T11:14:25;8.10;;;6.57;;
17596;SDS011;8917;50.942;6.946;2023-06-10T11:16:56;7.20;;;6.35;;
17596;SDS011;8917;50.942;6.946;2023-06-10T11:19:35;7.90;;;6.82;;
17596;SDS011;8917;50.942;6.946;2023-06-10T11:22:05;6.72;;;5.93;;
17596;SDS011;8917;50.942;6.946;2023-06-10T11:24:33;6.45;;;5.60;;
17596;SDS011;8917;50.942;6.946;2023-06-10T11:27:16;6.82;;;6.22;;
17596;SDS011;8917;50.942;6.946;2023-06-10T11:29:57;7.25;;;5.97;;
17596;SDS011;8917;50.942;6.946;2023-06-10T11:32:25;7.30;;;6.40;;
17596;SDS011;8917;50.942;6.946;2023-06-10T11:34:57;6.57;;;5.97;;
17596;SDS011;8917;50.942;6.946;2023-06-10T11:37:24;6.80;;;6.18;;
17596;SDS011;8917;50.942;6.946;2023-06-10T11:39:52;7.18;;;5.65;;
17596;SDS011;8917;50.942;6.946;2023-06-10T11:42:19;8.00;;;5.95;;
17596;SDS011;8917;50.942;6.946;2023-06-10T11:44:49;7.47;;;6.30;;
17596;SDS011;8917;50.942;6.946;2023-06-10T11:47:17;7.28;;;6.47;;
17596;SDS011;8917;50.942;6.946;2023-06-10T11:49:45;6.95;;;6.30;;
17596;SDS011;8917;50.942;6.946;2023-06-10T11:52:13;6.90;;;5.78;;
17596;SDS011;8917;50.942;6.946;2023-06-10T11:54:40;5.60;;;5.10;;
17596;SDS011;8917;50.942;6.946;2023-06-10T11:57:08;5.43;;;5.03;;
17596;SDS011;8917;50.942;6.946;2023-06-10T11:59:35;5.80;;;5.20;;
17596;SDS011;8917;50.942;6.946;2023-06-10T12:02:03;6.15;;;5.60;;
17596;SDS011;8917;50.942;6.946;2023-06-10T12:04:31;6.53;;;5.93;;
17596;SDS011;8917;50.942;6.946;2023-06-10T12:06:58;8.30;;;6.45;;
17596;SDS011;8917;50.942;6.946;2023-06-10T12:09:27;6.20;;;5.68;;
17596;SDS011;8917;50.942;6.946;2023-06-10T12:11:55;6.07;;;5.55;;
17596;SDS011;8917;50.942;6.946;2023-06-10T12:17:09;7.70;;;7.00;;
17596;SDS011;8917;50.942;6.946;2023-06-10T12:19:38;7.63;;;6.85;;
17596;SDS011;8917;50.942;6.946;2023-06-10T12:22:05;7.03;;;6.30;;
17596;SDS011;8917;50.942;6.946;2023-06-10T12:24:34;7.30;;;6.60;;
17596;SDS011;8917;50.942;6.946;2023-06-10T12:27:10;6.55;;;5.95;;
17596;SDS011;8917;50.942;6.946;2023-06-10T12:29:38;8.18;;;6.43;;
17596;SDS011;8917;50.942;6.946;2023-06-10T12:32:05;7.38;;;6.57;;
17596;SDS011;8917;50.942;6.946;2023-06-10T12:34:33;7.22;;;6.45;;
17596;SDS011;8917;50.942;6.946;2023-06-10T12:37:02;6.55;;;6.00;;
17596;SDS011;8917;50.942;6.946;2023-06-10T12:39:30;8.13;;;6.38;;
17596;SDS011;8917;50.942;6.946;2023-06-10T12:41:58;7.10;;;6.43;;
17596;SDS011;8917;50.942;6.946;2023-06-10T12:44:29;6.43;;;5.93;;
17596;SDS011;8917;50.942;6.946;2023-06-10T12:46:56;7.35;;;6.65;;
17596;SDS011;8917;50.942;6.946;2023-06-10T12:49:24;6.70;;;6.10;;
17596;SDS011;8917;50.942;6.946;2023-06-10T12:51:51;6.97;;;6.18;;
17596;SDS011;8917;50.942;6.946;2023-06-10T12:54:18;7.20;;;6.00;;
17596;SDS011;8917;50.942;6.946;2023-06-10T12:56:46;6.82;;;6.13;;
17596;SDS011;8917;50.942;6.946;2023-06-10T12:59:14;5.80;;;5.30;;
17596;SDS011;8917;50.942;6.946;2023-06-10T13:01:41;5.95;;;5.45;;
17596;SDS011;8917;50.942;6.946;2023-06-10T13:04:08;6.55;;;5.65;;
17596;SDS011;8917;50.942;6.946;2023-06-10T13:06:36;7.10;;;6.22;;
17596;SDS011;8917;50.942;6.946;2023-06-10T13:09:04;6.13;;;5.47;;
17596;SDS011;8917;50.942;6.946;2023-06-10T13:11:33;5.75;;;5.25;;
17596;SDS011;8917;50.942;6.946;2023-06-10T13:14:01;5.78;;;5.13;;
17596;SDS011;8917;50.942;6.946;2023-06-10T13:16:30;7.82;;;5.70;;
17596;SDS011;8917;50.942;6.946;2023-06-10T13:18:58;6.38;;;5.32;;
17596;SDS011;8917;50.942;6.946;2023-06-10T13:21:25;5.82;;;5.22;;
17596;SDS011;8917;50.942;6.946;2023-06-10T13:23:52;7.40;;;5.28;;
17596;SDS011;8917;50.942;6.946;2023-06-10T13:26:20;6.22;;;5.35;;
17596;SDS011;8917;50.942;6.946;2023-06-10T13:28:47;6.88;;;5.53;;
17596;SDS011;8917;50.942;6.946;2023-06-10T13:31:14;6.10;;;5.53;;
17596;SDS011;8917;50.942;6.946;2023-06-10T13:33:43;5.30;;;4.55;;
17596;SDS011;8917;50.942;6.946;2023-06-10T13:36:10;7.80;;;5.40;;
17596;SDS011;8917;50.942;6.946;2023-06-10T13:38:37;6.28;;;5.65;;
17596;SDS011;8917;50.942;6.946;2023-06-10T13:41:04;5.78;;;5.28;;
17596;SDS011;8917;50.942;6.946;2023-06-10T13:43:32;6.07;;;5.47;;
17596;SDS011;8917;50.942;6.946;2023-06-10T13:45:59;5.82;;;5.28;;
17596;SDS011;8917;50.942;6.946;2023-06-10T13:48:26;6.07;;;5.45;;
17596;SDS011;8917;50.942;6.946;2023-06-10T13:50:55;6.18;;;5.55;;
17596;SDS011;8917;50.942;6.946;2023-06-10T13:53:22;5.88;;;5.28;;
17596;SDS011;8917;50.942;6.946;2023-06-10T13:55:49;6.10;;;5.50;;
17596;SDS011;8917;50.942;6.946;2023-06-10T13:58:17;5.43;;;4.85;;
17596;SDS011;8917;50.942;6.946;2023-06-10T14:00:44;6.18;;;5.55;;
17596;SDS011;8917;50.942;6.946;2023-06-10T14:03:12;8.32;;;5.57;;
17596;SDS011;8917;50.942;6.946;2023-06-10T14:05:39;8.13;;;5.60;;
17596;SDS011;8917;50.942;6.946;2023-06-10T14:08:08;6.82;;;5.22;;
17596;SDS011;8917;50.942;6.946;2023-06-10T14:10:35;7.57;;;5.75;;
17596;SDS011;8917;50.942;6.946;2023-06-10T14:13:02;7.43;;;5.43;;
17596;SDS011;8917;50.942;6.946;2023-06-10T14:15:30;5.53;;;5.13;;
17596;SDS011;8917;50.942;6.946;2023-06-10T14:17:57;5.55;;;5.05;;
17596;SDS011;8917;50.942;6.946;2023-06-10T14:20:30;5.32;;;4.82;;
17596;SDS011;8917;50.942;6.946;2023-06-10T14:22:58;6.15;;;5.57;;
17596;SDS011;8917;50.942;6.946;2023-06-10T14:25:26;5.95;;;5.28;;
17596;SDS011;8917;50.942;6.946;2023-06-10T14:27:53;6.38;;;5.10;;
17596;SDS011;8917;50.942;6.946;2023-06-10T14:30:21;5.82;;;5.32;;
17596;SDS011;8917;50.942;6.946;2023-06-10T14:32:48;6.88;;;5.15;;
17596;SDS011;8917;50.942;6.946;2023-06-10T14:35:15;5.32;;;4.82;;
17596;SDS011;8917;50.942;6.946;2023-06-10T14:37:42;5.78;;;5.22;;
17596;SDS011;8917;50.942;6.946;2023-06-10T14:40:10;6.47;;;4.82;;
17596;SDS011;8917;50.942;6.946;2023-06-10T14:42:38;6.13;;;5.07;;
17596;SDS011;8917;50.942;6.946;2023-06-10T14:45:06;7.72;;;4.97;;
17596;SDS011;8917;50.942;6.946;2023-06-10T14:47:35;6.30;;;5.50;;
17596;SDS011;8917;50.942;6.946;2023-06-10T14:50:02;6.15;;;5.18;;
17596;SDS011;8917;50.942;6.946;2023-06-10T14:52:29;6.75;;;5.20;;
17596;SDS011;8917;50.942;6.946;2023-06-10T14:54:56;5.97;;;5.03;;
17596;SDS011;8917;50.942;6.946;2023-06-10T14:57:23;6.93;;;6.25;;
17596;SDS011;8917;50.942;6.946;2023-06-10T14:59:52;9.93;;;7.85;;
17596;SDS011;8917;50.942;6.946;2023-06-10T15:02:21;9.20;;;8.32;;
17596;SDS011;8917;50.942;6.946;2023-06-10T15:04:48;7.45;;;5.57;;
17596;SDS011;8917;50.942;6.946;2023-06-10T15:07:15;10.20;;;5.53;;
17596;SDS011;8917;50.942;6.946;2023-06-10T15:09:42;6.32;;;5.30;;